Flight Track Log - Related Links

Times and Time Zones

All times are in EDT time to prevent confusion due to time zone crossing. See the AWE1940 flight status page for this flight to view local times or setup timezone preferences in your user account.

Time Position Orientation Groundspeed Altitude Reporting Facility
EDT Latitude Longitude Course Direction KTS MPH feet Rate Location/Type
Mon 10:18:54 PM 35.1928 -80.9356 72° East 156 180 1,700  Level Atlanta Center
Mon 10:19:24 PM 35.1678 -80.9339 177° South 167 192 2,600 1,979 Climbing Atlanta Center
Mon 10:20:31 PM 35.1203 -80.8722 133° Southeast 275 316 4,900 2,435 Climbing Atlanta Center
Mon 10:21:00 PM 35.1055 -80.6297 29° Northeast  Level FlightAware Approximate
Mon 10:21:42 PM 35.1761 -80.7711 56° Northeast 308 354 8,200  Level Atlanta Center
Mon 10:22:00 PM 35.2000 -80.5667 30° Northeast  Level FlightAware Approximate
Mon 10:23:00 PM 35.2930 -80.5003 30° Northeast  Level FlightAware Approximate
Mon 10:23:27 PM 35.2683 -80.6086 55° Northeast 341 392 11,600  Level Washington Center
Mon 10:24:00 PM 35.3488 -80.4084 72° East  Level FlightAware Approximate
Mon 10:24:28 PM 35.3250 -80.5003 57° Northeast 396 456 14,900  Level Washington Center
Mon 10:25:27 PM 35.3636 -80.3728 70° East 396 456 17,300 2,420 Climbing Washington Center
Mon 10:26:27 PM 35.4022 -80.2425 70° East 404 465 19,700 2,430 Climbing Washington Center
Mon 10:27:28 PM 35.4386 -80.1069 72° East 413 475 22,200 2,115 Climbing Washington Center
Mon 10:28:29 PM 35.4722 -79.9889 71° East 421 484 24,000 1,785 Climbing Washington Center
Mon 10:29:29 PM 35.5089 -79.8431 73° East 421 484 25,800 1,636 Climbing Washington Center
Mon 10:30:30 PM 35.5453 -79.6969 73° East 431 496 27,300 1,576 Climbing Washington Center
Mon 10:31:27 PM 35.5906 -79.5281 72° East 455 524 28,900 923 Climbing Washington Center
Mon 10:32:27 PM 35.6303 -79.3972 69° East 462 532 29,100 550 Climbing Washington Center
Mon 10:33:27 PM 35.6914 -79.2467 63° Northeast 468 539 30,000 992 Climbing Washington Center
Mon 10:34:28 PM 35.7478 -79.1033 64° Northeast 468 539 31,100 541 Climbing Washington Center
Mon 10:35:29 PM 35.8064 -78.9547 64° Northeast 468 539 31,100  Level Washington Center
Mon 10:36:29 PM 35.8667 -78.8061 63° Northeast 474 545 31,100  Level Washington Center
Mon 10:37:27 PM 35.9353 -78.6600 60° Northeast 480 552 31,100 -50 Level Washington Center
Mon 10:38:28 PM 36.0122 -78.5039 59° Northeast 480 552 31,000  Descending Washington Center
Mon 10:39:28 PM 36.0822 -78.3600 59° Northeast 480 552 31,100 50 Climbing Washington Center
Mon 10:40:27 PM 36.1503 -78.2158 60° Northeast 485 558 31,100  Level Washington Center
Mon 10:41:28 PM 36.2222 -78.0689 59° Northeast 480 552 31,100  Level Washington Center
Mon 10:42:29 PM 36.2919 -77.9217 60° Northeast 480 552 31,100  Level Washington Center
Mon 10:43:29 PM 36.3617 -77.7742 60° Northeast 480 552 31,100  Level Washington Center
Mon 10:44:27 PM 36.4158 -77.6594 60° Northeast 480 552 31,100  Level Washington Center
Mon 10:45:28 PM 36.4892 -77.5011 60° Northeast 480 552 31,100  Level Washington Center
Mon 10:46:29 PM 36.5561 -77.3553 60° Northeast 480 552 31,100  Level Washington Center
Mon 10:47:27 PM 36.6231 -77.2094 60° Northeast 480 552 31,100  Level Washington Center
Mon 10:48:28 PM 36.6917 -77.0631 60° Northeast 480 552 31,100  Level Washington Center
Mon 10:49:29 PM 36.7825 -76.9483 45° Northeast 480 552 31,100  Level Washington Center
Mon 10:50:30 PM 36.8922 -76.8489 36° Northeast 466 536 31,100  Level Washington Center
Mon 10:51:27 PM 37.0122 -76.7442 35° Northeast 471 542 31,100  Level Washington Center
Mon 10:52:28 PM 37.1194 -76.6467 36° Northeast 476 548 31,100  Level Washington Center
Mon 10:53:27 PM 37.2267 -76.5492 36° Northeast 476 548 31,100  Level Washington Center
Mon 10:54:27 PM 37.3339 -76.4511 36° Northeast 476 548 31,100  Level Washington Center
Mon 10:55:28 PM 37.4408 -76.3531 36° Northeast 476 548 31,100  Level Washington Center
Mon 10:56:28 PM 37.5478 -76.2544 36° Northeast 476 548 31,100  Level Washington Center
Mon 10:57:27 PM 37.6547 -76.1558 36° Northeast 481 554 31,100 -50 Level Washington Center
Mon 10:58:27 PM 37.7531 -76.0725 34° Northeast 475 547 31,000  Descending Washington Center
Mon 10:59:28 PM 37.8578 -75.9678 38° Northeast 475 547 31,100 49 Climbing Washington Center
Mon 11:00:29 PM 37.9664 -75.8683 36° Northeast 475 547 31,100  Level Washington Center
Mon 11:01:28 PM 38.0731 -75.7631 38° Northeast 481 554 31,100  Level Washington Center
Mon 11:02:29 PM 38.1814 -75.6631 36° Northeast 481 554 31,100  Level Washington Center
Mon 11:03:29 PM 38.2878 -75.5625 37° Northeast 481 554 31,100 -50 Level Washington Center
Mon 11:04:29 PM 38.4067 -75.4883 26° Northeast 481 554 31,000 -50 Descending Washington Center
Mon 11:05:28 PM 38.5358 -75.4325 19° North 465 535 31,000  Level Washington Center
Mon 11:06:28 PM 38.6608 -75.3817 18° North 470 541 31,000  Level Washington Center
Mon 11:07:27 PM 38.7858 -75.3281 18° North 470 541 31,000  Level Washington Center
Mon 11:08:27 PM 38.9044 -75.2369 31° Northeast 470 541 31,000  Level Washington Center
Mon 11:09:30 PM 39.0186 -75.1428 33° Northeast 475 547 31,000  Level Washington Center
Mon 11:10:28 PM 39.1350 -75.0564 30° Northeast 480 552 31,000  Level Washington Center
Mon 11:11:28 PM 39.2514 -74.9617 32° Northeast 485 558 31,000  Level Washington Center
Mon 11:12:29 PM 39.3656 -74.8694 32° Northeast 485 558 31,000  Level Washington Center
Mon 11:13:27 PM 39.4961 -74.7658 31° Northeast 496 571 31,000 42 Level Washington Center
Mon 11:14:53 PM 39.6564 -74.6347 32° Northeast 481 554 31,100 42 Climbing New York Center
Mon 11:15:51 PM 39.7611 -74.5542 31° Northeast 487 560 31,100 -51 Level New York Center
Mon 11:16:51 PM 39.8894 -74.4475 33° Northeast 487 560 31,000 -50 Descending New York Center
Mon 11:17:52 PM 40.0050 -74.3533 32° Northeast 487 560 31,000 -50 Level New York Center
Mon 11:18:52 PM 40.1161 -74.2642 32° Northeast 477 549 30,900 -885 Descending New York Center
Mon 11:19:54 PM 40.2381 -74.2294 12° North 456 525 29,200 -1,180 Descending New York Center
Mon 11:20:54 PM 40.3417 -74.1803 20° North 431 496 28,500 -1,376 Descending New York Center
Mon 11:23:19 PM 40.6142 -73.9956 27° Northeast 433 498 24,500 -1,288 Descending Boston Center
Mon 11:24:19 PM 40.7236 -73.9189 28° Northeast 438 504 24,100 -250 Descending Boston Center
Mon 11:25:19 PM 40.8308 -73.8253 33° Northeast 443 510 24,000 -50 Descending Boston Center
Mon 11:26:19 PM 40.9197 -73.7092 45° Northeast 453 521 24,000  Level Boston Center
Mon 11:27:19 PM 40.9792 -73.6250 47° Northeast 448 516 24,000  Level Boston Center
Mon 11:28:19 PM 41.0992 -73.4978 39° Northeast 428 493 24,000  Level Boston Center
Mon 11:29:19 PM 41.2033 -73.4939 North 375 432 24,000 -500 Level Boston Center
Mon 11:30:19 PM 41.3136 -73.5206 350° North 369 425 23,000 -1,450 Descending Boston Center
Mon 11:31:19 PM 41.4156 -73.5444 350° North 369 425 21,100 -1,500 Descending Boston Center
Mon 11:32:19 PM 41.5175 -73.5603 353° North 369 425 20,000 -800 Descending Boston Center
Mon 11:33:19 PM 41.6111 -73.5839 349° North 357 411 19,500 -700 Descending Boston Center
Mon 11:34:19 PM 41.7108 -73.6025 352° North 357 411 18,600 -850 Descending Boston Center
Mon 11:35:19 PM 41.8106 -73.6211 352° North 362 417 17,800 -800 Descending Boston Center
Mon 11:36:19 PM 41.9106 -73.6397 352° North 362 417 17,000 -850 Descending Boston Center
Mon 11:37:19 PM 42.0125 -73.6611 351° North 362 417 16,100 -950 Descending Boston Center
Mon 11:38:19 PM 42.1081 -73.6825 351° North 367 422 15,100 -1,000 Descending Boston Center
Mon 11:39:19 PM 42.1975 -73.6983 353° North 342 394 14,100 -1,250 Descending Boston Center
Mon 11:40:19 PM 42.2767 -73.7139 352° North 308 354 12,600 -2,050 Descending Boston Center
Mon 11:41:19 PM 42.3431 -73.7350 347° North 273 314 10,000 -2,600 Descending Boston Center
Mon 11:42:19 PM 42.4281 -73.7592 348° North 282 325 7,400 -2,200 Descending Boston Center
Mon 11:43:19 PM 42.4947 -73.7775 349° North 273 314 5,600 -1,800 Descending Boston Center

Login

Don't have an account? Register now (free) for customized features, flight alerts, and more!